sensor_id;sensor_type;location;lat;lon;timestamp;temperature;humidity
77039;DHT22;65970;50.476;4.840;2024-02-21T00:03:40;10.10;47.10
77039;DHT22;65970;50.476;4.840;2024-02-21T00:08:40;10.10;47.10
77039;DHT22;65970;50.476;4.840;2024-02-21T00:13:41;10.10;47.10
77039;DHT22;65970;50.476;4.840;2024-02-21T00:18:41;10.10;47.20
77039;DHT22;65970;50.476;4.840;2024-02-21T00:23:42;10.10;46.20
77039;DHT22;65970;50.476;4.840;2024-02-21T00:28:42;10.10;47.10
77039;DHT22;65970;50.476;4.840;2024-02-21T00:33:43;10.10;47.10
77039;DHT22;65970;50.476;4.840;2024-02-21T00:38:43;10.10;47.10
77039;DHT22;65970;50.476;4.840;2024-02-21T00:43:44;10.10;47.10
77039;DHT22;65970;50.476;4.840;2024-02-21T00:48:44;10.10;47.10
77039;DHT22;65970;50.476;4.840;2024-02-21T00:53:45;10.10;47.00
77039;DHT22;65970;50.476;4.840;2024-02-21T00:58:45;10.10;47.10
77039;DHT22;65970;50.476;4.840;2024-02-21T01:03:46;10.10;47.00
77039;DHT22;65970;50.476;4.840;2024-02-21T01:08:49;10.10;47.00
77039;DHT22;65970;50.476;4.840;2024-02-21T01:13:50;10.10;47.00
77039;DHT22;65970;50.476;4.840;2024-02-21T01:18:50;10.10;47.00
77039;DHT22;65970;50.476;4.840;2024-02-21T01:23:51;10.10;47.00
77039;DHT22;65970;50.476;4.840;2024-02-21T01:28:51;10.10;47.00
77039;DHT22;65970;50.476;4.840;2024-02-21T01:33:52;10.10;46.90
77039;DHT22;65970;50.476;4.840;2024-02-21T01:38:52;10.10;46.90
77039;DHT22;65970;50.476;4.840;2024-02-21T01:43:53;10.10;47.00
77039;DHT22;65970;50.476;4.840;2024-02-21T01:48:55;10.10;46.90
77039;DHT22;65970;50.476;4.840;2024-02-21T01:53:57;10.10;46.90
77039;DHT22;65970;50.476;4.840;2024-02-21T01:58:58;10.10;46.90
77039;DHT22;65970;50.476;4.840;2024-02-21T02:03:59;10.00;46.70
77039;DHT22;65970;50.476;4.840;2024-02-21T02:09:00;10.10;46.90
77039;DHT22;65970;50.476;4.840;2024-02-21T02:14:00;10.00;46.70
77039;DHT22;65970;50.476;4.840;2024-02-21T02:19:01;10.00;46.70
77039;DHT22;65970;50.476;4.840;2024-02-21T02:24:01;10.00;46.70
77039;DHT22;65970;50.476;4.840;2024-02-21T02:29:02;10.00;46.70
77039;DHT22;65970;50.476;4.840;2024-02-21T02:34:03;10.00;46.70
77039;DHT22;65970;50.476;4.840;2024-02-21T02:39:03;10.00;46.80
77039;DHT22;65970;50.476;4.840;2024-02-21T02:44:04;10.00;46.80
77039;DHT22;65970;50.476;4.840;2024-02-21T02:49:04;10.00;46.70
77039;DHT22;65970;50.476;4.840;2024-02-21T02:54:05;10.00;46.80
77039;DHT22;65970;50.476;4.840;2024-02-21T02:59:05;10.00;46.80
77039;DHT22;65970;50.476;4.840;2024-02-21T03:04:07;10.00;46.80
77039;DHT22;65970;50.476;4.840;2024-02-21T03:09:08;10.00;46.80
77039;DHT22;65970;50.476;4.840;2024-02-21T03:14:08;10.00;46.80
77039;DHT22;65970;50.476;4.840;2024-02-21T03:19:09;10.00;46.80
77039;DHT22;65970;50.476;4.840;2024-02-21T03:24:09;10.00;46.80
77039;DHT22;65970;50.476;4.840;2024-02-21T03:29:11;10.00;46.90
77039;DHT22;65970;50.476;4.840;2024-02-21T03:34:11;10.00;46.80
77039;DHT22;65970;50.476;4.840;2024-02-21T03:39:12;10.00;46.80
77039;DHT22;65970;50.476;4.840;2024-02-21T03:44:12;10.00;46.80
77039;DHT22;65970;50.476;4.840;2024-02-21T03:49:13;10.00;46.80
77039;DHT22;65970;50.476;4.840;2024-02-21T03:54:13;10.00;46.80
77039;DHT22;65970;50.476;4.840;2024-02-21T03:59:14;9.90;46.80
77039;DHT22;65970;50.476;4.840;2024-02-21T04:04:15;10.00;46.80
77039;DHT22;65970;50.476;4.840;2024-02-21T04:09:16;10.00;46.80
77039;DHT22;65970;50.476;4.840;2024-02-21T04:14:16;10.00;46.80
77039;DHT22;65970;50.476;4.840;2024-02-21T04:19:17;9.90;46.80
77039;DHT22;65970;50.476;4.840;2024-02-21T04:24:17;9.90;46.80
77039;DHT22;65970;50.476;4.840;2024-02-21T04:29:18;9.90;46.70
77039;DHT22;65970;50.476;4.840;2024-02-21T04:34:18;9.90;46.70
77039;DHT22;65970;50.476;4.840;2024-02-21T04:39:19;9.90;46.70
77039;DHT22;65970;50.476;4.840;2024-02-21T04:44:19;9.90;46.70
77039;DHT22;65970;50.476;4.840;2024-02-21T04:49:20;9.90;46.70
77039;DHT22;65970;50.476;4.840;2024-02-21T04:54:20;9.90;46.70
77039;DHT22;65970;50.476;4.840;2024-02-21T04:59:21;9.90;46.60
77039;DHT22;65970;50.476;4.840;2024-02-21T05:04:21;9.90;46.60
77039;DHT22;65970;50.476;4.840;2024-02-21T05:09:22;9.90;46.70
77039;DHT22;65970;50.476;4.840;2024-02-21T05:14:22;9.90;46.60
77039;DHT22;65970;50.476;4.840;2024-02-21T05:19:23;9.90;46.60
77039;DHT22;65970;50.476;4.840;2024-02-21T05:24:23;9.90;46.60
77039;DHT22;65970;50.476;4.840;2024-02-21T05:29:24;9.90;46.50
77039;DHT22;65970;50.476;4.840;2024-02-21T05:34:25;9.90;46.60
77039;DHT22;65970;50.476;4.840;2024-02-21T05:39:25;9.80;46.40
77039;DHT22;65970;50.476;4.840;2024-02-21T05:44:26;9.90;46.60
77039;DHT22;65970;50.476;4.840;2024-02-21T05:49:26;9.80;46.30
77039;DHT22;65970;50.476;4.840;2024-02-21T05:54:27;9.80;46.40
77039;DHT22;65970;50.476;4.840;2024-02-21T05:59:27;9.80;46.40
77039;DHT22;65970;50.476;4.840;2024-02-21T06:04:28;9.80;46.30
77039;DHT22;65970;50.476;4.840;2024-02-21T06:09:28;9.80;46.40
77039;DHT22;65970;50.476;4.840;2024-02-21T06:14:29;9.80;46.30
77039;DHT22;65970;50.476;4.840;2024-02-21T06:19:29;9.80;46.30
77039;DHT22;65970;50.476;4.840;2024-02-21T06:24:30;9.80;46.40
77039;DHT22;65970;50.476;4.840;2024-02-21T06:29:30;9.70;46.40
77039;DHT22;65970;50.476;4.840;2024-02-21T06:34:31;9.70;46.40
77039;DHT22;65970;50.476;4.840;2024-02-21T06:39:32;9.70;46.30
77039;DHT22;65970;50.476;4.840;2024-02-21T06:44:32;9.70;46.30
77039;DHT22;65970;50.476;4.840;2024-02-21T06:49:33;9.70;46.30
77039;DHT22;65970;50.476;4.840;2024-02-21T06:54:34;9.70;46.30
77039;DHT22;65970;50.476;4.840;2024-02-21T06:59:34;9.70;46.40
77039;DHT22;65970;50.476;4.840;2024-02-21T07:04:35;9.70;46.40
77039;DHT22;65970;50.476;4.840;2024-02-21T07:09:35;9.70;46.30
77039;DHT22;65970;50.476;4.840;2024-02-21T07:14:36;9.70;46.40
77039;DHT22;65970;50.476;4.840;2024-02-21T07:19:37;9.70;46.30
77039;DHT22;65970;50.476;4.840;2024-02-21T07:24:37;9.70;46.40
77039;DHT22;65970;50.476;4.840;2024-02-21T07:29:38;9.70;46.50
77039;DHT22;65970;50.476;4.840;2024-02-21T07:34:38;9.70;46.50
77039;DHT22;65970;50.476;4.840;2024-02-21T07:39:39;9.70;46.40
77039;DHT22;65970;50.476;4.840;2024-02-21T07:44:39;9.70;45.60
77039;DHT22;65970;50.476;4.840;2024-02-21T07:49:44;9.70;46.60
77039;DHT22;65970;50.476;4.840;2024-02-21T07:54:45;9.60;46.50
77039;DHT22;65970;50.476;4.840;2024-02-21T07:59:45;9.70;46.60
77039;DHT22;65970;50.476;4.840;2024-02-21T08:04:46;9.70;46.80
77039;DHT22;65970;50.476;4.840;2024-02-21T08:09:46;9.70;46.60
77039;DHT22;65970;50.476;4.840;2024-02-21T08:14:47;9.70;46.60
77039;DHT22;65970;50.476;4.840;2024-02-21T08:19:47;9.70;46.70
77039;DHT22;65970;50.476;4.840;2024-02-21T08:24:48;9.70;46.90
77039;DHT22;65970;50.476;4.840;2024-02-21T08:29:48;9.70;46.70
77039;DHT22;65970;50.476;4.840;2024-02-21T08:34:49;9.70;46.80
77039;DHT22;65970;50.476;4.840;2024-02-21T08:39:49;9.70;46.70
77039;DHT22;65970;50.476;4.840;2024-02-21T08:44:50;9.60;46.70
77039;DHT22;65970;50.476;4.840;2024-02-21T08:49:50;9.70;46.80
77039;DHT22;65970;50.476;4.840;2024-02-21T08:54:51;9.70;46.80
77039;DHT22;65970;50.476;4.840;2024-02-21T08:59:51;9.60;46.50
77039;DHT22;65970;50.476;4.840;2024-02-21T09:04:52;9.70;46.60
77039;DHT22;65970;50.476;4.840;2024-02-21T09:09:52;9.70;46.60
77039;DHT22;65970;50.476;4.840;2024-02-21T09:14:53;9.70;46.60
77039;DHT22;65970;50.476;4.840;2024-02-21T09:19:53;9.70;46.70
77039;DHT22;65970;50.476;4.840;2024-02-21T09:24:56;9.70;46.70
77039;DHT22;65970;50.476;4.840;2024-02-21T09:29:57;9.70;46.70
77039;DHT22;65970;50.476;4.840;2024-02-21T09:34:57;9.70;46.70
77039;DHT22;65970;50.476;4.840;2024-02-21T09:39:58;9.70;46.80
77039;DHT22;65970;50.476;4.840;2024-02-21T09:44:58;9.70;46.90
77039;DHT22;65970;50.476;4.840;2024-02-21T09:50:01;9.70;46.80
77039;DHT22;65970;50.476;4.840;2024-02-21T09:55:06;9.70;46.90
77039;DHT22;65970;50.476;4.840;2024-02-21T10:00:08;9.80;46.80
77039;DHT22;65970;50.476;4.840;2024-02-21T10:05:08;9.80;46.90
77039;DHT22;65970;50.476;4.840;2024-02-21T10:10:10;9.80;47.10
77039;DHT22;65970;50.476;4.840;2024-02-21T10:15:10;9.90;47.00
77039;DHT22;65970;50.476;4.840;2024-02-21T10:20:11;9.80;46.80
77039;DHT22;65970;50.476;4.840;2024-02-21T10:25:12;9.90;47.10
77039;DHT22;65970;50.476;4.840;2024-02-21T10:30:14;9.90;47.00
77039;DHT22;65970;50.476;4.840;2024-02-21T10:35:14;9.90;46.90
77039;DHT22;65970;50.476;4.840;2024-02-21T10:40:27;9.90;47.00
77039;DHT22;65970;50.476;4.840;2024-02-21T10:45:37;9.90;47.00
77039;DHT22;65970;50.476;4.840;2024-02-21T10:51:06;9.90;47.00
77039;DHT22;65970;50.476;4.840;2024-02-21T10:56:28;10.00;47.10
77039;DHT22;65970;50.476;4.840;2024-02-21T11:01:29;10.00;47.00
77039;DHT22;65970;50.476;4.840;2024-02-21T11:06:30;10.00;47.00
77039;DHT22;65970;50.476;4.840;2024-02-21T11:11:34;10.00;47.10
77039;DHT22;65970;50.476;4.840;2024-02-21T11:16:40;10.10;47.20
77039;DHT22;65970;50.476;4.840;2024-02-21T11:21:40;10.10;47.20
77039;DHT22;65970;50.476;4.840;2024-02-21T11:26:41;10.10;47.10
77039;DHT22;65970;50.476;4.840;2024-02-21T11:31:43;10.10;47.10
77039;DHT22;65970;50.476;4.840;2024-02-21T11:36:51;10.10;47.10
77039;DHT22;65970;50.476;4.840;2024-02-21T11:42:02;10.20;47.00
77039;DHT22;65970;50.476;4.840;2024-02-21T11:47:03;10.20;47.10
77039;DHT22;65970;50.476;4.840;2024-02-21T11:52:05;10.20;47.10
77039;DHT22;65970;50.476;4.840;2024-02-21T11:57:05;10.20;47.10
77039;DHT22;65970;50.476;4.840;2024-02-21T12:02:06;10.30;47.20
77039;DHT22;65970;50.476;4.840;2024-02-21T12:07:07;10.30;47.20
77039;DHT22;65970;50.476;4.840;2024-02-21T12:12:09;10.30;47.20
77039;DHT22;65970;50.476;4.840;2024-02-21T12:17:09;10.30;47.10
77039;DHT22;65970;50.476;4.840;2024-02-21T12:22:17;10.40;47.10
77039;DHT22;65970;50.476;4.840;2024-02-21T12:27:18;10.40;47.10
77039;DHT22;65970;50.476;4.840;2024-02-21T12:32:19;10.40;47.10
77039;DHT22;65970;50.476;4.840;2024-02-21T12:37:19;10.50;47.20
77039;DHT22;65970;50.476;4.840;2024-02-21T12:42:20;10.50;47.30
77039;DHT22;65970;50.476;4.840;2024-02-21T12:47:20;10.50;47.10
77039;DHT22;65970;50.476;4.840;2024-02-21T12:52:21;10.50;47.10
77039;DHT22;65970;50.476;4.840;2024-02-21T12:57:21;10.50;47.10
77039;DHT22;65970;50.476;4.840;2024-02-21T13:02:22;10.50;47.10
77039;DHT22;65970;50.476;4.840;2024-02-21T13:07:22;10.60;47.10
77039;DHT22;65970;50.476;4.840;2024-02-21T13:12:23;10.60;47.20
77039;DHT22;65970;50.476;4.840;2024-02-21T13:17:23;10.60;47.20
77039;DHT22;65970;50.476;4.840;2024-02-21T13:22:24;10.60;47.10
77039;DHT22;65970;50.476;4.840;2024-02-21T13:27:27;10.60;47.20
77039;DHT22;65970;50.476;4.840;2024-02-21T13:32:27;10.70;47.30
77039;DHT22;65970;50.476;4.840;2024-02-21T13:37:28;10.70;47.30
77039;DHT22;65970;50.476;4.840;2024-02-21T13:42:28;10.70;47.30
77039;DHT22;65970;50.476;4.840;2024-02-21T13:47:29;10.70;47.30
77039;DHT22;65970;50.476;4.840;2024-02-21T13:52:30;10.70;47.30
77039;DHT22;65970;50.476;4.840;2024-02-21T13:57:31;10.70;47.30
77039;DHT22;65970;50.476;4.840;2024-02-21T14:02:31;10.70;47.20
77039;DHT22;65970;50.476;4.840;2024-02-21T14:07:32;10.70;47.20
77039;DHT22;65970;50.476;4.840;2024-02-21T14:12:33;10.70;47.20
77039;DHT22;65970;50.476;4.840;2024-02-21T14:17:33;10.70;47.30
77039;DHT22;65970;50.476;4.840;2024-02-21T14:22:34;10.70;47.20
77039;DHT22;65970;50.476;4.840;2024-02-21T14:27:35;10.70;47.20
77039;DHT22;65970;50.476;4.840;2024-02-21T14:32:35;10.80;47.20
77039;DHT22;65970;50.476;4.840;2024-02-21T14:37:36;10.80;47.10
77039;DHT22;65970;50.476;4.840;2024-02-21T14:42:36;10.80;47.30
77039;DHT22;65970;50.476;4.840;2024-02-21T14:47:37;10.80;47.30
77039;DHT22;65970;50.476;4.840;2024-02-21T14:52:37;10.80;47.20
77039;DHT22;65970;50.476;4.840;2024-02-21T14:57:38;10.80;47.20
77039;DHT22;65970;50.476;4.840;2024-02-21T15:02:39;10.80;47.20
77039;DHT22;65970;50.476;4.840;2024-02-21T15:07:39;10.80;47.20
77039;DHT22;65970;50.476;4.840;2024-02-21T15:12:40;10.80;47.20
77039;DHT22;65970;50.476;4.840;2024-02-21T15:17:40;10.80;47.20
77039;DHT22;65970;50.476;4.840;2024-02-21T15:22:41;10.80;47.20
77039;DHT22;65970;50.476;4.840;2024-02-21T15:27:45;10.80;47.20
77039;DHT22;65970;50.476;4.840;2024-02-21T15:32:45;10.70;47.20
77039;DHT22;65970;50.476;4.840;2024-02-21T15:37:46;10.70;47.20
77039;DHT22;65970;50.476;4.840;2024-02-21T15:42:46;10.80;47.20
77039;DHT22;65970;50.476;4.840;2024-02-21T15:47:47;10.70;47.20
77039;DHT22;65970;50.476;4.840;2024-02-21T15:52:47;10.70;47.20
77039;DHT22;65970;50.476;4.840;2024-02-21T15:57:48;10.70;47.20
77039;DHT22;65970;50.476;4.840;2024-02-21T16:02:48;10.70;47.20
77039;DHT22;65970;50.476;4.840;2024-02-21T16:07:49;10.70;47.10
77039;DHT22;65970;50.476;4.840;2024-02-21T16:12:49;10.70;47.10
77039;DHT22;65970;50.476;4.840;2024-02-21T16:17:50;10.70;47.10
77039;DHT22;65970;50.476;4.840;2024-02-21T16:22:50;10.70;47.10
77039;DHT22;65970;50.476;4.840;2024-02-21T16:27:51;10.70;47.00
77039;DHT22;65970;50.476;4.840;2024-02-21T16:32:51;10.70;47.10
77039;DHT22;65970;50.476;4.840;2024-02-21T16:37:52;10.70;47.00
77039;DHT22;65970;50.476;4.840;2024-02-21T16:42:52;10.70;47.00
77039;DHT22;65970;50.476;4.840;2024-02-21T16:47:53;10.60;47.00
77039;DHT22;65970;50.476;4.840;2024-02-21T16:52:53;10.60;45.20
77039;DHT22;65970;50.476;4.840;2024-02-21T16:57:54;10.60;47.00
77039;DHT22;65970;50.476;4.840;2024-02-21T17:02:54;10.60;47.00
77039;DHT22;65970;50.476;4.840;2024-02-21T17:07:55;10.60;47.00
77039;DHT22;65970;50.476;4.840;2024-02-21T17:12:55;10.60;47.00
77039;DHT22;65970;50.476;4.840;2024-02-21T17:17:56;10.60;47.00
77039;DHT22;65970;50.476;4.840;2024-02-21T17:22:56;10.60;46.00
77039;DHT22;65970;50.476;4.840;2024-02-21T17:27:57;10.60;47.00
77039;DHT22;65970;50.476;4.840;2024-02-21T17:32:58;10.50;47.20
77039;DHT22;65970;50.476;4.840;2024-02-21T17:37:58;10.50;47.20
77039;DHT22;65970;50.476;4.840;2024-02-21T17:42:59;10.50;47.20
77039;DHT22;65970;50.476;4.840;2024-02-21T17:47:59;10.50;47.00
77039;DHT22;65970;50.476;4.840;2024-02-21T17:53:00;10.50;47.10
77039;DHT22;65970;50.476;4.840;2024-02-21T17:58:00;10.50;47.20
77039;DHT22;65970;50.476;4.840;2024-02-21T18:03:01;10.50;47.10
77039;DHT22;65970;50.476;4.840;2024-02-21T18:08:01;10.50;47.20
77039;DHT22;65970;50.476;4.840;2024-02-21T18:13:02;10.50;47.20
77039;DHT22;65970;50.476;4.840;2024-02-21T18:18:03;10.50;47.20
77039;DHT22;65970;50.476;4.840;2024-02-21T18:23:03;10.50;47.30
77039;DHT22;65970;50.476;4.840;2024-02-21T18:28:04;10.50;47.30
77039;DHT22;65970;50.476;4.840;2024-02-21T18:33:04;10.50;47.40
77039;DHT22;65970;50.476;4.840;2024-02-21T18:38:05;10.40;47.30
77039;DHT22;65970;50.476;4.840;2024-02-21T18:43:05;10.50;47.30
77039;DHT22;65970;50.476;4.840;2024-02-21T18:48:06;10.40;47.30
77039;DHT22;65970;50.476;4.840;2024-02-21T18:53:07;10.50;47.50
77039;DHT22;65970;50.476;4.840;2024-02-21T18:58:08;10.50;47.50
77039;DHT22;65970;50.476;4.840;2024-02-21T19:03:08;10.40;47.50
77039;DHT22;65970;50.476;4.840;2024-02-21T19:08:09;10.50;47.60
77039;DHT22;65970;50.476;4.840;2024-02-21T19:13:09;10.40;47.50
77039;DHT22;65970;50.476;4.840;2024-02-21T19:18:10;10.40;47.60
77039;DHT22;65970;50.476;4.840;2024-02-21T19:23:10;10.40;47.60
77039;DHT22;65970;50.476;4.840;2024-02-21T19:28:11;10.40;47.60
77039;DHT22;65970;50.476;4.840;2024-02-21T19:33:12;10.40;47.80
77039;DHT22;65970;50.476;4.840;2024-02-21T19:38:13;10.40;47.70
77039;DHT22;65970;50.476;4.840;2024-02-21T19:43:13;10.40;47.90
77039;DHT22;65970;50.476;4.840;2024-02-21T19:48:14;10.40;47.80
77039;DHT22;65970;50.476;4.840;2024-02-21T19:53:14;10.50;48.00
77039;DHT22;65970;50.476;4.840;2024-02-21T19:58:15;10.50;48.00
77039;DHT22;65970;50.476;4.840;2024-02-21T20:03:15;10.50;48.10
77039;DHT22;65970;50.476;4.840;2024-02-21T20:08:16;10.50;48.10
77039;DHT22;65970;50.476;4.840;2024-02-21T20:13:17;10.40;48.10
77039;DHT22;65970;50.476;4.840;2024-02-21T20:18:17;10.40;48.10
77039;DHT22;65970;50.476;4.840;2024-02-21T20:23:18;10.40;46.70
77039;DHT22;65970;50.476;4.840;2024-02-21T20:28:18;10.40;48.30
77039;DHT22;65970;50.476;4.840;2024-02-21T20:33:19;10.40;48.40
77039;DHT22;65970;50.476;4.840;2024-02-21T20:38:19;10.50;48.60
77039;DHT22;65970;50.476;4.840;2024-02-21T20:43:20;10.50;48.60
77039;DHT22;65970;50.476;4.840;2024-02-21T20:48:20;10.40;48.50
77039;DHT22;65970;50.476;4.840;2024-02-21T20:53:21;10.50;48.80
77039;DHT22;65970;50.476;4.840;2024-02-21T20:58:21;10.50;48.90
77039;DHT22;65970;50.476;4.840;2024-02-21T21:03:22;10.50;48.90
77039;DHT22;65970;50.476;4.840;2024-02-21T21:08:22;10.50;48.90
77039;DHT22;65970;50.476;4.840;2024-02-21T21:13:23;10.50;49.00
77039;DHT22;65970;50.476;4.840;2024-02-21T21:18:23;10.50;49.10
77039;DHT22;65970;50.476;4.840;2024-02-21T21:23:24;10.50;49.10
77039;DHT22;65970;50.476;4.840;2024-02-21T21:28:25;10.50;49.10
77039;DHT22;65970;50.476;4.840;2024-02-21T21:33:25;10.50;49.20
77039;DHT22;65970;50.476;4.840;2024-02-21T21:38:26;10.50;49.30
77039;DHT22;65970;50.476;4.840;2024-02-21T21:43:26;10.50;49.20
77039;DHT22;65970;50.476;4.840;2024-02-21T21:48:27;10.50;49.10
77039;DHT22;65970;50.476;4.840;2024-02-21T21:53:27;10.50;49.20
77039;DHT22;65970;50.476;4.840;2024-02-21T21:58:28;10.50;49.30
77039;DHT22;65970;50.476;4.840;2024-02-21T22:03:28;10.50;49.30
77039;DHT22;65970;50.476;4.840;2024-02-21T22:08:29;10.50;49.40
77039;DHT22;65970;50.476;4.840;2024-02-21T22:13:29;10.60;49.40
77039;DHT22;65970;50.476;4.840;2024-02-21T22:18:30;10.60;49.50
77039;DHT22;65970;50.476;4.840;2024-02-21T22:23:30;10.60;49.40
77039;DHT22;65970;50.476;4.840;2024-02-21T22:28:31;10.60;49.40
77039;DHT22;65970;50.476;4.840;2024-02-21T22:33:31;10.60;49.50
77039;DHT22;65970;50.476;4.840;2024-02-21T22:38:32;10.60;49.50
77039;DHT22;65970;50.476;4.840;2024-02-21T22:43:32;10.60;49.50
77039;DHT22;65970;50.476;4.840;2024-02-21T22:48:33;10.60;49.60
77039;DHT22;65970;50.476;4.840;2024-02-21T22:53:34;10.60;49.60
77039;DHT22;65970;50.476;4.840;2024-02-21T22:58:34;10.60;49.70
77039;DHT22;65970;50.476;4.840;2024-02-21T23:03:35;10.60;49.70
77039;DHT22;65970;50.476;4.840;2024-02-21T23:08:35;10.60;49.80
77039;DHT22;65970;50.476;4.840;2024-02-21T23:13:36;10.60;49.80
77039;DHT22;65970;50.476;4.840;2024-02-21T23:18:36;10.60;49.80
77039;DHT22;65970;50.476;4.840;2024-02-21T23:23:37;10.70;49.90
77039;DHT22;65970;50.476;4.840;2024-02-21T23:28:42;10.70;50.00
77039;DHT22;65970;50.476;4.840;2024-02-21T23:33:42;10.70;50.10
77039;DHT22;65970;50.476;4.840;2024-02-21T23:38:43;10.70;50.10
77039;DHT22;65970;50.476;4.840;2024-02-21T23:43:44;10.70;50.20
77039;DHT22;65970;50.476;4.840;2024-02-21T23:48:45;10.70;50.30
77039;DHT22;65970;50.476;4.840;2024-02-21T23:53:45;10.70;50.30
77039;DHT22;65970;50.476;4.840;2024-02-21T23:58:46;10.70;50.40
